createdAt,value
2023-05-21T13:03:39.983Z,33.09
2023-05-21T13:11:10.708Z,40.83
2023-05-21T13:16:13.694Z,44.51
2023-05-21T13:21:16.556Z,44.95
2023-05-21T13:26:21.237Z,45.89
2023-05-21T13:31:24.141Z,45.73
2023-05-21T13:36:26.932Z,47.20
2023-05-21T13:41:31.427Z,48.76
2023-05-21T13:46:39.445Z,47.35
2023-05-21T13:51:42.416Z,45.92
2023-05-21T13:56:46.617Z,44.97
2023-05-21T14:01:50.493Z,44.20
2023-05-21T14:06:53.516Z,42.92
2023-05-21T14:11:58.788Z,41.74
2023-05-21T14:17:01.728Z,41.33
2023-05-21T14:22:04.611Z,40.06
2023-05-21T14:27:08.950Z,38.89
2023-05-21T14:32:16.122Z,39.35
2023-05-21T14:37:21.373Z,40.66
2023-05-21T14:42:25.692Z,41.66
2023-05-21T14:47:28.740Z,42.34
2023-05-21T14:52:31.630Z,42.70
2023-05-21T14:57:36.079Z,42.60
2023-05-21T15:02:39.170Z,42.57
2023-05-21T15:07:42.067Z,42.32
2023-05-21T15:12:46.263Z,42.08
2023-05-21T15:17:49.670Z,41.76
2023-05-21T15:22:56.866Z,39.85
2023-05-21T15:28:09.523Z,39.29
2023-05-21T15:33:12.510Z,39.10
2023-05-21T15:38:15.394Z,38.88
2023-05-21T15:43:20.298Z,37.29
2023-05-21T15:48:23.427Z,36.29
2023-05-21T15:53:26.262Z,34.85
2023-05-21T15:58:31.178Z,33.03
2023-05-21T16:03:33.986Z,31.85
2023-05-21T16:08:36.864Z,32.22
2023-05-21T16:13:41.093Z,33.78
2023-05-21T16:18:43.999Z,34.54
2023-05-21T16:23:46.904Z,36.58
2023-05-21T16:28:51.257Z,38.46
2023-05-21T16:33:54.213Z,40.32
2023-05-21T16:38:56.969Z,41.37
2023-05-21T16:44:01.097Z,42.18
2023-05-21T16:49:03.974Z,42.70
2023-05-21T16:54:06.753Z,42.95
2023-05-21T16:59:10.994Z,42.64
2023-05-21T17:04:13.769Z,43.24
2023-05-21T17:09:18.109Z,43.06
2023-05-21T17:14:33.151Z,43.31
2023-05-21T17:19:37.496Z,43.73
2023-05-21T17:24:40.470Z,43.77
2023-05-21T17:29:44.585Z,44.59
2023-05-21T17:34:47.518Z,44.89
2023-05-21T17:39:50.448Z,45.16
2023-05-21T17:44:54.754Z,45.52
2023-05-21T17:49:57.686Z,46.00
2023-05-21T17:55:00.920Z,46.22
2023-05-21T18:00:07.006Z,46.35
2023-05-21T18:05:19.005Z,46.40
2023-05-21T18:10:22.016Z,46.71
2023-05-21T18:15:26.448Z,47.30
2023-05-21T18:20:30.056Z,47.36
2023-05-21T18:25:33.117Z,47.79
2023-05-21T18:30:38.026Z,48.36
2023-05-21T18:35:42.369Z,48.69
2023-05-21T18:40:45.394Z,49.11
2023-05-21T18:45:49.517Z,49.36
2023-05-21T18:50:52.948Z,49.85
2023-05-21T18:55:55.966Z,50.33
2023-05-21T19:01:00.206Z,50.61
2023-05-21T19:06:03.525Z,51.04
2023-05-21T19:11:07.433Z,51.12
2023-05-21T19:16:11.834Z,51.27
2023-05-21T19:21:14.832Z,51.51
2023-05-21T19:26:17.740Z,51.84
2023-05-21T19:31:22.284Z,52.34
2023-05-21T19:36:25.465Z,52.49
2023-05-21T19:41:28.442Z,52.57
2023-05-21T19:46:33.060Z,52.95
2023-05-21T19:51:35.990Z,53.42
2023-05-21T19:56:38.908Z,53.85
2023-05-21T20:01:44.325Z,54.31
2023-05-21T20:06:47.278Z,54.28
2023-05-21T20:11:50.202Z,54.74
2023-05-21T20:16:54.611Z,54.97
2023-05-21T20:21:58.028Z,55.32
2023-05-21T20:27:01.703Z,55.40
2023-05-21T20:32:06.987Z,55.54
2023-05-21T20:37:09.945Z,55.80
2023-05-21T20:42:14.974Z,55.93
2023-05-21T20:47:20.193Z,56.76
2023-05-21T20:52:23.753Z,56.65
2023-05-21T20:57:27.380Z,56.93
2023-05-21T21:02:32.705Z,57.46
2023-05-21T21:07:36.883Z,57.86
2023-05-21T21:12:39.598Z,57.99
2023-05-21T21:17:43.798Z,58.17
2023-05-21T21:22:47.260Z,58.82
2023-05-21T21:27:50.371Z,59.19
2023-05-21T21:32:54.646Z,59.04
2023-05-21T21:37:57.611Z,59.17
2023-05-21T21:43:00.400Z,59.30
2023-05-21T21:48:04.796Z,59.54
2023-05-21T21:53:07.654Z,59.96
2023-05-21T21:58:10.475Z,60.35
2023-05-21T22:03:14.886Z,60.75
2023-05-21T22:08:17.918Z,60.60
2023-05-21T22:13:20.745Z,60.79
2023-05-21T22:18:39.463Z,61.18
2023-05-21T22:23:43.410Z,61.40
2023-05-21T22:28:46.251Z,61.85
2023-05-21T22:33:50.367Z,61.85
2023-05-21T22:38:53.298Z,61.88
2023-05-21T22:43:56.149Z,62.11
2023-05-21T22:49:00.702Z,62.62
2023-05-21T22:54:03.572Z,62.79
2023-05-21T22:59:06.339Z,62.55
2023-05-21T23:04:10.527Z,63.08
2023-05-21T23:09:14.020Z,63.21
2023-05-21T23:14:16.758Z,63.58
2023-05-21T23:19:21.279Z,63.46
2023-05-21T23:24:24.276Z,64.09
2023-05-21T23:29:27.020Z,64.01
2023-05-21T23:34:31.331Z,64.14
2023-05-21T23:39:34.138Z,64.51
2023-05-21T23:44:36.880Z,64.41
2023-05-21T23:49:41.435Z,64.54
2023-05-21T23:54:44.204Z,64.73
2023-05-21T23:59:46.972Z,64.73
